sensor_id;sensor_type;location;lat;lon;timestamp;P1;durP1;ratioP1;P2;durP2;ratioP2
11865;SDS011;5992;52.744;6.898;2022-07-30T01:24:22;2.93;;;2.30;;
11865;SDS011;5992;52.744;6.898;2022-07-30T01:27:54;3.35;;;2.25;;
11865;SDS011;5992;52.744;6.898;2022-07-30T01:31:27;4.00;;;2.73;;
11865;SDS011;5992;52.744;6.898;2022-07-30T01:34:35;3.77;;;2.17;;
11865;SDS011;5992;52.744;6.898;2022-07-30T01:38:05;4.13;;;2.30;;
11865;SDS011;5992;52.744;6.898;2022-07-30T01:41:36;2.47;;;2.27;;
11865;SDS011;5992;52.744;6.898;2022-07-30T01:45:11;2.85;;;2.20;;
11865;SDS011;5992;52.744;6.898;2022-07-30T01:48:41;3.20;;;2.57;;
11865;SDS011;5992;52.744;6.898;2022-07-30T01:52:09;2.57;;;2.37;;
11865;SDS011;5992;52.744;6.898;2022-07-30T01:55:27;3.17;;;2.23;;
11865;SDS011;5992;52.744;6.898;2022-07-30T01:58:54;2.20;;;2.00;;
11865;SDS011;5992;52.744;6.898;2022-07-30T02:02:12;2.60;;;2.40;;
11865;SDS011;5992;52.744;6.898;2022-07-30T02:05:48;2.45;;;2.10;;
11865;SDS011;5992;52.744;6.898;2022-07-30T02:09:14;5.65;;;2.30;;
11865;SDS011;5992;52.744;6.898;2022-07-30T02:12:45;2.60;;;2.40;;
11865;SDS011;5992;52.744;6.898;2022-07-30T02:16:02;2.60;;;2.40;;
11865;SDS011;5992;52.744;6.898;2022-07-30T02:19:37;3.00;;;2.60;;
11865;SDS011;5992;52.744;6.898;2022-07-30T02:22:57;2.33;;;2.20;;
11865;SDS011;5992;52.744;6.898;2022-07-30T02:26:26;2.13;;;2.03;;
11865;SDS011;5992;52.744;6.898;2022-07-30T02:29:58;2.87;;;2.67;;
11865;SDS011;5992;52.744;6.898;2022-07-30T02:33:27;2.80;;;2.30;;
11865;SDS011;5992;52.744;6.898;2022-07-30T02:36:57;3.10;;;2.80;;
11865;SDS011;5992;52.744;6.898;2022-07-30T02:40:29;4.80;;;2.80;;
11865;SDS011;5992;52.744;6.898;2022-07-30T02:44:00;3.03;;;2.80;;
11865;SDS011;5992;52.744;6.898;2022-07-30T02:47:31;3.40;;;3.10;;
11865;SDS011;5992;52.744;6.898;2022-07-30T02:50:47;3.85;;;3.20;;
11865;SDS011;5992;52.744;6.898;2022-07-30T02:54:22;6.40;;;3.27;;
11865;SDS011;5992;52.744;6.898;2022-07-30T02:57:53;3.57;;;3.00;;
11865;SDS011;5992;52.744;6.898;2022-07-30T03:01:24;3.60;;;2.80;;
11865;SDS011;5992;52.744;6.898;2022-07-30T03:04:55;3.67;;;3.03;;
11865;SDS011;5992;52.744;6.898;2022-07-30T03:08:30;4.97;;;3.80;;
11865;SDS011;5992;52.744;6.898;2022-07-30T03:11:48;4.55;;;2.90;;
11865;SDS011;5992;52.744;6.898;2022-07-30T03:15:18;3.40;;;2.93;;
11865;SDS011;5992;52.744;6.898;2022-07-30T03:18:37;5.00;;;3.50;;
11865;SDS011;5992;52.744;6.898;2022-07-30T03:22:11;3.60;;;3.30;;
11865;SDS011;5992;52.744;6.898;2022-07-30T03:25:27;3.23;;;2.97;;
11865;SDS011;5992;52.744;6.898;2022-07-30T03:29:03;3.87;;;3.23;;
11865;SDS011;5992;52.744;6.898;2022-07-30T03:32:19;4.50;;;3.27;;
11865;SDS011;5992;52.744;6.898;2022-07-30T03:35:53;2.90;;;2.70;;
11865;SDS011;5992;52.744;6.898;2022-07-30T03:39:24;2.80;;;2.60;;
11865;SDS011;5992;52.744;6.898;2022-07-30T03:42:53;2.85;;;2.65;;
11865;SDS011;5992;52.744;6.898;2022-07-30T03:46:24;5.25;;;3.30;;
11865;SDS011;5992;52.744;6.898;2022-07-30T03:49:55;3.33;;;3.03;;
11865;SDS011;5992;52.744;6.898;2022-07-30T03:53:15;3.10;;;2.80;;
11865;SDS011;5992;52.744;6.898;2022-07-30T03:56:48;4.63;;;3.10;;
11865;SDS011;5992;52.744;6.898;2022-07-30T04:00:04;3.30;;;3.00;;
11865;SDS011;5992;52.744;6.898;2022-07-30T04:03:37;2.90;;;2.70;;
11865;SDS011;5992;52.744;6.898;2022-07-30T04:07:09;2.80;;;2.60;;
11865;SDS011;5992;52.744;6.898;2022-07-30T04:10:41;2.77;;;2.57;;
11865;SDS011;5992;52.744;6.898;2022-07-30T04:13:59;2.90;;;2.67;;
11865;SDS011;5992;52.744;6.898;2022-07-30T04:17:34;3.40;;;3.10;;
11865;SDS011;5992;52.744;6.898;2022-07-30T04:20:53;3.17;;;2.87;;
11865;SDS011;5992;52.744;6.898;2022-07-30T04:24:25;3.00;;;2.80;;
11865;SDS011;5992;52.744;6.898;2022-07-30T04:27:58;3.30;;;3.00;;
11865;SDS011;5992;52.744;6.898;2022-07-30T04:31:29;2.97;;;2.67;;
11865;SDS011;5992;52.744;6.898;2022-07-30T04:34:59;3.50;;;2.77;;
11865;SDS011;5992;52.744;6.898;2022-07-30T04:38:19;3.23;;;2.70;;
11865;SDS011;5992;52.744;6.898;2022-07-30T04:41:49;2.87;;;2.67;;
11865;SDS011;5992;52.744;6.898;2022-07-30T04:45:08;3.50;;;3.20;;
11865;SDS011;5992;52.744;6.898;2022-07-30T04:48:36;3.37;;;3.07;;
11865;SDS011;5992;52.744;6.898;2022-07-30T04:52:08;2.83;;;2.63;;
11865;SDS011;5992;52.744;6.898;2022-07-30T04:55:32;3.30;;;3.00;;
11865;SDS011;5992;52.744;6.898;2022-07-30T05:02:25;4.63;;;2.83;;
11865;SDS011;5992;52.744;6.898;2022-07-30T05:05:58;4.47;;;4.00;;
11865;SDS011;5992;52.744;6.898;2022-07-30T05:12:35;3.17;;;2.87;;
11865;SDS011;5992;52.744;6.898;2022-07-30T05:19:38;3.23;;;2.93;;
11865;SDS011;5992;52.744;6.898;2022-07-30T05:22:58;2.80;;;2.60;;
11865;SDS011;5992;52.744;6.898;2022-07-30T05:26:17;2.95;;;2.40;;
11865;SDS011;5992;52.744;6.898;2022-07-30T05:29:49;2.53;;;2.33;;
11865;SDS011;5992;52.744;6.898;2022-07-30T05:33:19;3.50;;;2.80;;
11865;SDS011;5992;52.744;6.898;2022-07-30T05:36:48;3.83;;;3.17;;
11865;SDS011;5992;52.744;6.898;2022-07-30T05:40:04;3.13;;;2.93;;
11865;SDS011;5992;52.744;6.898;2022-07-30T05:43:34;3.23;;;2.93;;
11865;SDS011;5992;52.744;6.898;2022-07-30T05:46:52;2.90;;;2.45;;
11865;SDS011;5992;52.744;6.898;2022-07-30T05:50:22;4.75;;;3.05;;
11865;SDS011;5992;52.744;6.898;2022-07-30T05:53:50;4.50;;;2.90;;
11865;SDS011;5992;52.744;6.898;2022-07-30T05:57:09;3.17;;;2.90;;
11865;SDS011;5992;52.744;6.898;2022-07-30T06:00:29;3.83;;;3.17;;
11865;SDS011;5992;52.744;6.898;2022-07-30T06:03:48;3.57;;;2.80;;
11865;SDS011;5992;52.744;6.898;2022-07-30T06:07:27;3.03;;;2.80;;
11865;SDS011;5992;52.744;6.898;2022-07-30T06:10:50;2.83;;;2.53;;
11865;SDS011;5992;52.744;6.898;2022-07-30T06:14:06;3.00;;;2.80;;
11865;SDS011;5992;52.744;6.898;2022-07-30T06:17:26;3.15;;;2.80;;
11865;SDS011;5992;52.744;6.898;2022-07-30T06:20:56;3.83;;;3.53;;
11865;SDS011;5992;52.744;6.898;2022-07-30T06:24:27;2.80;;;2.60;;
11865;SDS011;5992;52.744;6.898;2022-07-30T06:30:51;3.23;;;2.93;;
11865;SDS011;5992;52.744;6.898;2022-07-30T06:33:55;3.03;;;2.73;;
11865;SDS011;5992;52.744;6.898;2022-07-30T06:37:15;2.50;;;2.30;;
11865;SDS011;5992;52.744;6.898;2022-07-30T06:40:45;2.30;;;2.10;;
11865;SDS011;5992;52.744;6.898;2022-07-30T06:44:04;2.83;;;2.03;;
11865;SDS011;5992;52.744;6.898;2022-07-30T06:47:21;3.00;;;2.07;;
11865;SDS011;5992;52.744;6.898;2022-07-30T06:51:00;2.30;;;2.20;;
11865;SDS011;5992;52.744;6.898;2022-07-30T06:54:18;2.43;;;2.23;;
11865;SDS011;5992;52.744;6.898;2022-07-30T06:57:46;2.70;;;2.50;;
11865;SDS011;5992;52.744;6.898;2022-07-30T07:01:05;2.47;;;2.27;;
11865;SDS011;5992;52.744;6.898;2022-07-30T07:04:33;4.00;;;2.70;;
11865;SDS011;5992;52.744;6.898;2022-07-30T07:07:49;2.60;;;2.40;;
11865;SDS011;5992;52.744;6.898;2022-07-30T07:11:11;2.20;;;2.00;;
11865;SDS011;5992;52.744;6.898;2022-07-30T07:17:45;2.77;;;2.57;;
11865;SDS011;5992;52.744;6.898;2022-07-30T07:21:13;3.10;;;2.50;;
11865;SDS011;5992;52.744;6.898;2022-07-30T07:24:47;2.40;;;2.25;;
11865;SDS011;5992;52.744;6.898;2022-07-30T07:34:22;2.43;;;2.10;;
11865;SDS011;5992;52.744;6.898;2022-07-30T07:37:49;2.50;;;2.30;;
11865;SDS011;5992;52.744;6.898;2022-07-30T07:41:08;2.97;;;2.73;;
11865;SDS011;5992;52.744;6.898;2022-07-30T07:44:24;3.20;;;2.40;;
11865;SDS011;5992;52.744;6.898;2022-07-30T07:47:55;2.60;;;2.40;;
11865;SDS011;5992;52.744;6.898;2022-07-30T07:51:13;2.35;;;2.15;;
11865;SDS011;5992;52.744;6.898;2022-07-30T07:54:47;2.43;;;2.23;;
11865;SDS011;5992;52.744;6.898;2022-07-30T07:58:09;2.20;;;2.03;;
11865;SDS011;5992;52.744;6.898;2022-07-30T08:01:42;3.83;;;2.00;;
11865;SDS011;5992;52.744;6.898;2022-07-30T08:05:02;2.40;;;2.20;;
11865;SDS011;5992;52.744;6.898;2022-07-30T08:08:33;2.35;;;1.90;;
11865;SDS011;5992;52.744;6.898;2022-07-30T08:12:06;2.70;;;2.50;;
11865;SDS011;5992;52.744;6.898;2022-07-30T08:18:41;4.10;;;2.67;;
11865;SDS011;5992;52.744;6.898;2022-07-30T08:22:08;3.23;;;2.23;;
11865;SDS011;5992;52.744;6.898;2022-07-30T08:28:21;3.07;;;2.77;;
11865;SDS011;5992;52.744;6.898;2022-07-30T08:31:55;3.00;;;2.80;;
11865;SDS011;5992;52.744;6.898;2022-07-30T08:35:11;2.40;;;2.20;;
11865;SDS011;5992;52.744;6.898;2022-07-30T08:41:36;2.93;;;2.73;;
11865;SDS011;5992;52.744;6.898;2022-07-30T08:45:12;8.17;;;2.80;;
11865;SDS011;5992;52.744;6.898;2022-07-30T08:48:49;2.63;;;2.43;;
11865;SDS011;5992;52.744;6.898;2022-07-30T08:52:20;2.83;;;2.43;;
11865;SDS011;5992;52.744;6.898;2022-07-30T08:55:36;2.87;;;2.23;;
11865;SDS011;5992;52.744;6.898;2022-07-30T08:59:09;3.90;;;3.50;;
11865;SDS011;5992;52.744;6.898;2022-07-30T09:02:42;3.90;;;2.70;;
11865;SDS011;5992;52.744;6.898;2022-07-30T09:06:18;2.77;;;2.47;;
11865;SDS011;5992;52.744;6.898;2022-07-30T09:09:25;3.03;;;2.60;;
11865;SDS011;5992;52.744;6.898;2022-07-30T09:12:41;5.10;;;2.70;;
11865;SDS011;5992;52.744;6.898;2022-07-30T09:15:57;3.07;;;2.77;;
11865;SDS011;5992;52.744;6.898;2022-07-30T09:19:27;2.90;;;2.30;;
11865;SDS011;5992;52.744;6.898;2022-07-30T09:22:46;2.47;;;2.27;;
11865;SDS011;5992;52.744;6.898;2022-07-30T09:26:26;2.53;;;2.33;;
11865;SDS011;5992;52.744;6.898;2022-07-30T09:30:01;2.67;;;2.30;;
11865;SDS011;5992;52.744;6.898;2022-07-30T09:33:39;2.07;;;1.80;;
11865;SDS011;5992;52.744;6.898;2022-07-30T09:37:17;4.07;;;1.97;;
11865;SDS011;5992;52.744;6.898;2022-07-30T09:40:49;3.53;;;2.20;;
11865;SDS011;5992;52.744;6.898;2022-07-30T09:44:22;2.53;;;2.03;;
11865;SDS011;5992;52.744;6.898;2022-07-30T09:47:49;4.85;;;2.55;;
11865;SDS011;5992;52.744;6.898;2022-07-30T09:51:05;2.40;;;2.10;;
11865;SDS011;5992;52.744;6.898;2022-07-30T09:54:47;2.30;;;2.10;;
11865;SDS011;5992;52.744;6.898;2022-07-30T09:58:05;2.40;;;1.70;;
11865;SDS011;5992;52.744;6.898;2022-07-30T10:01:48;2.70;;;1.70;;
11865;SDS011;5992;52.744;6.898;2022-07-30T10:08:37;2.20;;;2.00;;
11865;SDS011;5992;52.744;6.898;2022-07-30T10:44:11;4.80;;;3.00;;
11865;SDS011;5992;52.744;6.898;2022-07-30T10:47:29;2.85;;;1.70;;
11865;SDS011;5992;52.744;6.898;2022-07-30T10:51:00;2.50;;;1.85;;
11865;SDS011;5992;52.744;6.898;2022-07-30T10:54:38;1.40;;;1.23;;
11865;SDS011;5992;52.744;6.898;2022-07-30T10:58:06;3.15;;;1.55;;
11865;SDS011;5992;52.744;6.898;2022-07-30T11:01:29;3.15;;;1.65;;
11865;SDS011;5992;52.744;6.898;2022-07-30T11:05:21;4.20;;;1.65;;
11865;SDS011;5992;52.744;6.898;2022-07-30T11:08:39;2.65;;;1.80;;
11865;SDS011;5992;52.744;6.898;2022-07-30T11:12:10;5.20;;;1.45;;
11865;SDS011;5992;52.744;6.898;2022-07-30T11:15:14;1.85;;;1.62;;
11865;SDS011;5992;52.744;6.898;2022-07-30T11:19:03;3.10;;;1.80;;
11865;SDS011;5992;52.744;6.898;2022-07-30T11:22:22;3.40;;;1.65;;
11865;SDS011;5992;52.744;6.898;2022-07-30T11:25:53;2.42;;;1.90;;
11865;SDS011;5992;52.744;6.898;2022-07-30T11:29:14;1.63;;;1.53;;
11865;SDS011;5992;52.744;6.898;2022-07-30T11:32:43;2.17;;;1.87;;
11865;SDS011;5992;52.744;6.898;2022-07-30T11:36:06;3.53;;;1.60;;
11865;SDS011;5992;52.744;6.898;2022-07-30T11:43:18;4.37;;;1.85;;
11865;SDS011;5992;52.744;6.898;2022-07-30T11:46:48;1.85;;;1.62;;
11865;SDS011;5992;52.744;6.898;2022-07-30T11:50:09;2.87;;;1.73;;
11865;SDS011;5992;52.744;6.898;2022-07-30T11:53:40;3.25;;;1.67;;
11865;SDS011;5992;52.744;6.898;2022-07-30T11:56:56;1.60;;;1.50;;
11865;SDS011;5992;52.744;6.898;2022-07-30T12:00:58;1.83;;;1.67;;
11865;SDS011;5992;52.744;6.898;2022-07-30T12:03:50;1.98;;;1.50;;
11865;SDS011;5992;52.744;6.898;2022-07-30T12:10:12;2.00;;;1.80;;
11865;SDS011;5992;52.744;6.898;2022-07-30T12:13:28;1.50;;;1.40;;
11865;SDS011;5992;52.744;6.898;2022-07-30T12:16:50;1.95;;;1.70;;
11865;SDS011;5992;52.744;6.898;2022-07-30T12:20:15;2.20;;;1.77;;
11865;SDS011;5992;52.744;6.898;2022-07-30T12:23:53;2.37;;;1.70;;
11865;SDS011;5992;52.744;6.898;2022-07-30T12:27:14;2.22;;;1.62;;
11865;SDS011;5992;52.744;6.898;2022-07-30T12:30:44;1.60;;;1.50;;
11865;SDS011;5992;52.744;6.898;2022-07-30T12:34:00;1.50;;;1.47;;
11865;SDS011;5992;52.744;6.898;2022-07-30T12:37:32;2.65;;;1.65;;
11865;SDS011;5992;52.744;6.898;2022-07-30T12:44:02;1.48;;;1.35;;
11865;SDS011;5992;52.744;6.898;2022-07-30T12:47:22;2.20;;;1.50;;
11865;SDS011;5992;52.744;6.898;2022-07-30T12:51:02;1.80;;;1.70;;
11865;SDS011;5992;52.744;6.898;2022-07-30T12:54:20;2.78;;;1.30;;
11865;SDS011;5992;52.744;6.898;2022-07-30T12:57:50;2.60;;;1.55;;
11865;SDS011;5992;52.744;6.898;2022-07-30T13:01:10;3.95;;;1.55;;
11865;SDS011;5992;52.744;6.898;2022-07-30T13:04:49;1.52;;;1.42;;
11865;SDS011;5992;52.744;6.898;2022-07-30T13:07:54;1.37;;;1.27;;
11865;SDS011;5992;52.744;6.898;2022-07-30T13:11:25;1.40;;;1.30;;
11865;SDS011;5992;52.744;6.898;2022-07-30T13:14:43;1.80;;;1.52;;
11865;SDS011;5992;52.744;6.898;2022-07-30T13:18:13;1.90;;;1.52;;
11865;SDS011;5992;52.744;6.898;2022-07-30T13:21:31;2.55;;;1.77;;
11865;SDS011;5992;52.744;6.898;2022-07-30T13:25:02;1.75;;;1.42;;
11865;SDS011;5992;52.744;6.898;2022-07-30T13:28:06;4.78;;;1.58;;
11865;SDS011;5992;52.744;6.898;2022-07-30T13:31:25;2.78;;;1.40;;
11865;SDS011;5992;52.744;6.898;2022-07-30T13:34:43;2.75;;;1.33;;
11865;SDS011;5992;52.744;6.898;2022-07-30T13:38:09;1.60;;;1.50;;
11865;SDS011;5992;52.744;6.898;2022-07-30T13:41:15;2.65;;;1.50;;
11865;SDS011;5992;52.744;6.898;2022-07-30T13:44:32;2.22;;;1.50;;
11865;SDS011;5992;52.744;6.898;2022-07-30T13:47:25;1.20;;;1.10;;
11865;SDS011;5992;52.744;6.898;2022-07-30T13:50:49;2.83;;;1.80;;
11865;SDS011;5992;52.744;6.898;2022-07-30T13:54:07;2.08;;;1.52;;
11865;SDS011;5992;52.744;6.898;2022-07-30T13:57:26;1.83;;;1.27;;
11865;SDS011;5992;52.744;6.898;2022-07-30T14:00:34;1.30;;;1.20;;
11865;SDS011;5992;52.744;6.898;2022-07-30T14:04:07;1.95;;;1.60;;
11865;SDS011;5992;52.744;6.898;2022-07-30T14:07:13;3.10;;;1.55;;
11865;SDS011;5992;52.744;6.898;2022-07-30T14:10:44;3.85;;;1.10;;
11865;SDS011;5992;52.744;6.898;2022-07-30T14:13:48;2.17;;;1.25;;
11865;SDS011;5992;52.744;6.898;2022-07-30T14:17:07;1.33;;;1.30;;
11865;SDS011;5992;52.744;6.898;2022-07-30T14:20:17;1.75;;;1.60;;
11865;SDS011;5992;52.744;6.898;2022-07-30T14:27:04;2.60;;;1.30;;
11865;SDS011;5992;52.744;6.898;2022-07-30T14:30:36;1.50;;;1.20;;
11865;SDS011;5992;52.744;6.898;2022-07-30T14:33:43;1.27;;;1.17;;
11865;SDS011;5992;52.744;6.898;2022-07-30T14:37:14;3.10;;;1.50;;
11865;SDS011;5992;52.744;6.898;2022-07-30T14:40:18;1.35;;;1.20;;
11865;SDS011;5992;52.744;6.898;2022-07-30T14:43:38;1.85;;;1.33;;
11865;SDS011;5992;52.744;6.898;2022-07-30T14:46:57;3.27;;;1.20;;
11865;SDS011;5992;52.744;6.898;2022-07-30T14:50:17;1.40;;;1.30;;
11865;SDS011;5992;52.744;6.898;2022-07-30T14:53:21;1.10;;;1.10;;
11865;SDS011;5992;52.744;6.898;2022-07-30T14:56:40;2.08;;;1.35;;
11865;SDS011;5992;52.744;6.898;2022-07-30T14:59:59;1.25;;;1.12;;
11865;SDS011;5992;52.744;6.898;2022-07-30T15:03:30;1.52;;;1.10;;
11865;SDS011;5992;52.744;6.898;2022-07-30T15:06:34;1.55;;;1.25;;
11865;SDS011;5992;52.744;6.898;2022-07-30T15:09:51;1.35;;;1.10;;
11865;SDS011;5992;52.744;6.898;2022-07-30T15:12:55;1.90;;;1.30;;
11865;SDS011;5992;52.744;6.898;2022-07-30T15:16:15;1.75;;;1.30;;
11865;SDS011;5992;52.744;6.898;2022-07-30T15:19:37;1.60;;;1.23;;
11865;SDS011;5992;52.744;6.898;2022-07-30T15:22:54;4.60;;;1.35;;
11865;SDS011;5992;52.744;6.898;2022-07-30T15:26:00;1.10;;;1.00;;
11865;SDS011;5992;52.744;6.898;2022-07-30T15:29:23;1.95;;;1.27;;
11865;SDS011;5992;52.744;6.898;2022-07-30T15:32:46;1.60;;;1.40;;
11865;SDS011;5992;52.744;6.898;2022-07-30T15:36:20;1.65;;;1.33;;
11865;SDS011;5992;52.744;6.898;2022-07-30T15:39:27;3.17;;;1.58;;
11865;SDS011;5992;52.744;6.898;2022-07-30T15:42:46;2.47;;;1.20;;
11865;SDS011;5992;52.744;6.898;2022-07-30T15:45:50;3.12;;;1.30;;
11865;SDS011;5992;52.744;6.898;2022-07-30T15:49:10;1.30;;;1.20;;
11865;SDS011;5992;52.744;6.898;2022-07-30T15:52:26;2.35;;;1.50;;
11865;SDS011;5992;52.744;6.898;2022-07-30T15:55:45;2.00;;;1.10;;
11865;SDS011;5992;52.744;6.898;2022-07-30T15:58:49;2.87;;;1.50;;
11865;SDS011;5992;52.744;6.898;2022-07-30T16:02:05;1.20;;;1.10;;
11865;SDS011;5992;52.744;6.898;2022-07-30T16:05:35;2.10;;;1.10;;
11865;SDS011;5992;52.744;6.898;2022-07-30T16:08:51;1.67;;;0.77;;
11865;SDS011;5992;52.744;6.898;2022-07-30T16:12:10;1.65;;;1.00;;
11865;SDS011;5992;52.744;6.898;2022-07-30T16:15:14;1.12;;;1.00;;
11865;SDS011;5992;52.744;6.898;2022-07-30T16:21:49;1.52;;;0.90;;
11865;SDS011;5992;52.744;6.898;2022-07-30T16:28:11;1.23;;;1.12;;
11865;SDS011;5992;52.744;6.898;2022-07-30T16:31:35;1.20;;;1.10;;
11865;SDS011;5992;52.744;6.898;2022-07-30T16:34:51;0.90;;;0.90;;
11865;SDS011;5992;52.744;6.898;2022-07-30T16:38:24;1.42;;;1.35;;
11865;SDS011;5992;52.744;6.898;2022-07-30T16:41:42;1.20;;;1.20;;
11865;SDS011;5992;52.744;6.898;2022-07-30T16:44:58;0.95;;;0.95;;
11865;SDS011;5992;52.744;6.898;2022-07-30T16:48:14;1.30;;;1.20;;
11865;SDS011;5992;52.744;6.898;2022-07-30T16:51:36;1.08;;;1.05;;
11865;SDS011;5992;52.744;6.898;2022-07-30T16:54:46;1.65;;;1.20;;
11865;SDS011;5992;52.744;6.898;2022-07-30T16:58:17;0.93;;;0.93;;
11865;SDS011;5992;52.744;6.898;2022-07-30T17:01:21;1.37;;;1.27;;
11865;SDS011;5992;52.744;6.898;2022-07-30T17:04:38;1.00;;;1.00;;
11865;SDS011;5992;52.744;6.898;2022-07-30T17:07:42;1.20;;;1.10;;
11865;SDS011;5992;52.744;6.898;2022-07-30T17:11:13;1.23;;;1.20;;
11865;SDS011;5992;52.744;6.898;2022-07-30T17:14:30;1.02;;;1.02;;
11865;SDS011;5992;52.744;6.898;2022-07-30T17:18:03;1.12;;;1.02;;
11865;SDS011;5992;52.744;6.898;2022-07-30T17:21:07;1.00;;;1.00;;
11865;SDS011;5992;52.744;6.898;2022-07-30T17:24:29;1.90;;;1.10;;
11865;SDS011;5992;52.744;6.898;2022-07-30T17:27:46;1.50;;;1.40;;
11865;SDS011;5992;52.744;6.898;2022-07-30T17:31:19;1.00;;;1.00;;
11865;SDS011;5992;52.744;6.898;2022-07-30T18:47:45;1.50;;;1.40;;
11865;SDS011;5992;52.744;6.898;2022-07-30T18:51:00;1.20;;;1.20;;
11865;SDS011;5992;52.744;6.898;2022-07-30T18:54:34;1.20;;;1.20;;
11865;SDS011;5992;52.744;6.898;2022-07-30T18:57:50;0.93;;;0.93;;
11865;SDS011;5992;52.744;6.898;2022-07-30T19:01:14;1.20;;;1.10;;
11865;SDS011;5992;52.744;6.898;2022-07-30T19:04:22;1.00;;;1.00;;
11865;SDS011;5992;52.744;6.898;2022-07-30T19:07:50;1.33;;;1.23;;
11865;SDS011;5992;52.744;6.898;2022-07-30T19:10:54;1.40;;;1.37;;
11865;SDS011;5992;52.744;6.898;2022-07-30T19:20:37;1.30;;;1.20;;
11865;SDS011;5992;52.744;6.898;2022-07-30T19:23:55;1.20;;;1.20;;
11865;SDS011;5992;52.744;6.898;2022-07-30T19:27:16;1.45;;;1.35;;
11865;SDS011;5992;52.744;6.898;2022-07-30T19:30:22;1.10;;;1.10;;
11865;SDS011;5992;52.744;6.898;2022-07-30T19:33:53;1.30;;;1.20;;
11865;SDS011;5992;52.744;6.898;2022-07-30T19:37:03;1.13;;;1.03;;
11865;SDS011;5992;52.744;6.898;2022-07-30T19:40:39;1.50;;;1.40;;
11865;SDS011;5992;52.744;6.898;2022-07-30T19:43:44;1.30;;;1.30;;
11865;SDS011;5992;52.744;6.898;2022-07-30T19:47:06;1.43;;;1.40;;
11865;SDS011;5992;52.744;6.898;2022-07-30T19:50:12;1.47;;;1.30;;
11865;SDS011;5992;52.744;6.898;2022-07-30T19:53:32;2.50;;;1.30;;
11865;SDS011;5992;52.744;6.898;2022-07-30T19:56:52;1.90;;;1.53;;
11865;SDS011;5992;52.744;6.898;2022-07-30T20:00:11;1.13;;;1.10;;
11865;SDS011;5992;52.744;6.898;2022-07-30T20:03:30;1.45;;;1.10;;
11865;SDS011;5992;52.744;6.898;2022-07-30T20:06:34;1.30;;;1.00;;
11865;SDS011;5992;52.744;6.898;2022-07-30T20:09:56;1.30;;;1.20;;
11865;SDS011;5992;52.744;6.898;2022-07-30T20:13:11;1.10;;;1.10;;
11865;SDS011;5992;52.744;6.898;2022-07-30T20:16:27;1.30;;;1.30;;
11865;SDS011;5992;52.744;6.898;2022-07-30T20:19:34;1.90;;;1.17;;
11865;SDS011;5992;52.744;6.898;2022-07-30T20:22:50;1.60;;;1.20;;
11865;SDS011;5992;52.744;6.898;2022-07-30T20:26:14;1.13;;;1.13;;
11865;SDS011;5992;52.744;6.898;2022-07-30T20:29:42;1.37;;;1.27;;
11865;SDS011;5992;52.744;6.898;2022-07-30T20:33:00;1.40;;;1.10;;
11865;SDS011;5992;52.744;6.898;2022-07-30T20:36:17;1.40;;;1.30;;
11865;SDS011;5992;52.744;6.898;2022-07-30T20:39:41;1.40;;;1.23;;
11865;SDS011;5992;52.744;6.898;2022-07-30T20:42:53;1.10;;;1.10;;
11865;SDS011;5992;52.744;6.898;2022-07-30T20:46:11;1.65;;;1.35;;
11865;SDS011;5992;52.744;6.898;2022-07-30T20:49:30;1.37;;;1.20;;
11865;SDS011;5992;52.744;6.898;2022-07-30T20:52:51;1.33;;;1.07;;
11865;SDS011;5992;52.744;6.898;2022-07-30T20:56:25;1.20;;;1.20;;
11865;SDS011;5992;52.744;6.898;2022-07-30T20:59:45;7.20;;;2.27;;
11865;SDS011;5992;52.744;6.898;2022-07-30T21:03:21;1.47;;;1.37;;
11865;SDS011;5992;52.744;6.898;2022-07-30T21:06:41;1.87;;;1.10;;
11865;SDS011;5992;52.744;6.898;2022-07-30T21:10:01;1.60;;;1.43;;
11865;SDS011;5992;52.744;6.898;2022-07-30T21:13:17;1.77;;;1.33;;
11865;SDS011;5992;52.744;6.898;2022-07-30T21:16:40;1.20;;;1.10;;
11865;SDS011;5992;52.744;6.898;2022-07-30T21:19:58;1.33;;;1.30;;
11865;SDS011;5992;52.744;6.898;2022-07-30T21:23:18;1.60;;;1.50;;
11865;SDS011;5992;52.744;6.898;2022-07-30T21:26:24;1.90;;;1.33;;
11865;SDS011;5992;52.744;6.898;2022-07-30T21:29:48;1.35;;;1.10;;
11865;SDS011;5992;52.744;6.898;2022-07-30T21:32:53;1.70;;;1.60;;
11865;SDS011;5992;52.744;6.898;2022-07-30T21:36:23;1.80;;;1.30;;
11865;SDS011;5992;52.744;6.898;2022-07-30T21:39:32;2.30;;;1.87;;
11865;SDS011;5992;52.744;6.898;2022-07-30T21:42:48;1.30;;;1.30;;
11865;SDS011;5992;52.744;6.898;2022-07-30T21:45:54;1.70;;;1.40;;
11865;SDS011;5992;52.744;6.898;2022-07-30T21:49:14;1.70;;;1.60;;
11865;SDS011;5992;52.744;6.898;2022-07-30T21:52:32;1.30;;;1.20;;
11865;SDS011;5992;52.744;6.898;2022-07-30T21:58:51;3.37;;;1.50;;
11865;SDS011;5992;52.744;6.898;2022-07-30T22:02:14;1.13;;;1.13;;
11865;SDS011;5992;52.744;6.898;2022-07-30T22:05:36;2.77;;;1.90;;
11865;SDS011;5992;52.744;6.898;2022-07-30T22:08:52;3.50;;;1.90;;
11865;SDS011;5992;52.744;6.898;2022-07-30T22:12:08;3.17;;;1.50;;
11865;SDS011;5992;52.744;6.898;2022-07-30T22:15:24;2.55;;;1.50;;
11865;SDS011;5992;52.744;6.898;2022-07-30T22:18:43;1.50;;;1.20;;
11865;SDS011;5992;52.744;6.898;2022-07-30T22:21:51;1.43;;;1.33;;
11865;SDS011;5992;52.744;6.898;2022-07-30T22:25:22;3.57;;;2.20;;
11865;SDS011;5992;52.744;6.898;2022-07-30T22:28:38;1.77;;;1.40;;
11865;SDS011;5992;52.744;6.898;2022-07-30T22:32:00;1.70;;;1.40;;
11865;SDS011;5992;52.744;6.898;2022-07-30T22:35:15;1.70;;;1.40;;
11865;SDS011;5992;52.744;6.898;2022-07-30T22:38:45;1.90;;;1.25;;
11865;SDS011;5992;52.744;6.898;2022-07-30T22:45:09;2.33;;;1.60;;
11865;SDS011;5992;52.744;6.898;2022-07-30T22:48:15;1.70;;;1.60;;
11865;SDS011;5992;52.744;6.898;2022-07-30T22:51:48;1.75;;;1.30;;
11865;SDS011;5992;52.744;6.898;2022-07-30T22:54:56;2.20;;;1.80;;
11865;SDS011;5992;52.744;6.898;2022-07-30T22:58:27;1.37;;;1.27;;
11865;SDS011;5992;52.744;6.898;2022-07-30T23:01:34;1.70;;;1.60;;
11865;SDS011;5992;52.744;6.898;2022-07-30T23:08:07;1.23;;;1.13;;
11865;SDS011;5992;52.744;6.898;2022-07-30T23:11:25;1.80;;;1.60;;
11865;SDS011;5992;52.744;6.898;2022-07-30T23:14:43;1.45;;;1.30;;
11865;SDS011;5992;52.744;6.898;2022-07-30T23:18:02;1.30;;;1.20;;
11865;SDS011;5992;52.744;6.898;2022-07-30T23:21:18;1.60;;;1.50;;
11865;SDS011;5992;52.744;6.898;2022-07-30T23:24:46;1.73;;;1.50;;
11865;SDS011;5992;52.744;6.898;2022-07-30T23:27:54;1.70;;;1.30;;
11865;SDS011;5992;52.744;6.898;2022-07-30T23:31:28;1.40;;;1.30;;
11865;SDS011;5992;52.744;6.898;2022-07-30T23:34:32;2.50;;;1.57;;
11865;SDS011;5992;52.744;6.898;2022-07-30T23:37:48;5.55;;;1.35;;
11865;SDS011;5992;52.744;6.898;2022-07-30T23:40:55;1.85;;;1.40;;
11865;SDS011;5992;52.744;6.898;2022-07-30T23:44:13;1.45;;;1.35;;
11865;SDS011;5992;52.744;6.898;2022-07-30T23:47:31;1.23;;;1.23;;
11865;SDS011;5992;52.744;6.898;2022-07-30T23:50:47;1.55;;;1.35;;
11865;SDS011;5992;52.744;6.898;2022-07-30T23:54:03;2.90;;;1.70;;
11865;SDS011;5992;52.744;6.898;2022-07-30T23:57:23;1.67;;;1.40;;
